sensor_id;sensor_type;location;lat;lon;timestamp;P1;durP1;ratioP1;P2;durP2;ratioP2
28311;SDS011;15572;48.810;9.148;2022-10-16T00:01:09;3.53;;;1.30;;
28311;SDS011;15572;48.810;9.148;2022-10-16T00:06:07;2.87;;;1.60;;
28311;SDS011;15572;48.810;9.148;2022-10-16T00:11:05;7.93;;;2.10;;
28311;SDS011;15572;48.810;9.148;2022-10-16T00:16:04;6.63;;;2.20;;
28311;SDS011;15572;48.810;9.148;2022-10-16T00:21:04;5.97;;;1.90;;
28311;SDS011;15572;48.810;9.148;2022-10-16T00:26:02;3.70;;;2.00;;
28311;SDS011;15572;48.810;9.148;2022-10-16T00:31:02;4.90;;;1.90;;
28311;SDS011;15572;48.810;9.148;2022-10-16T00:35:59;2.90;;;2.07;;
28311;SDS011;15572;48.810;9.148;2022-10-16T00:40:58;4.00;;;2.00;;
28311;SDS011;15572;48.810;9.148;2022-10-16T00:45:55;3.40;;;2.10;;
28311;SDS011;15572;48.810;9.148;2022-10-16T00:50:52;2.17;;;1.70;;
28311;SDS011;15572;48.810;9.148;2022-10-16T00:55:49;2.70;;;1.77;;
28311;SDS011;15572;48.810;9.148;2022-10-16T01:00:46;2.90;;;1.50;;
28311;SDS011;15572;48.810;9.148;2022-10-16T01:05:44;5.30;;;1.60;;
28311;SDS011;15572;48.810;9.148;2022-10-16T01:10:50;2.63;;;1.50;;
28311;SDS011;15572;48.810;9.148;2022-10-16T01:15:53;3.73;;;1.70;;
28311;SDS011;15572;48.810;9.148;2022-10-16T01:20:57;2.97;;;1.90;;
28311;SDS011;15572;48.810;9.148;2022-10-16T01:26:06;4.20;;;2.87;;
28311;SDS011;15572;48.810;9.148;2022-10-16T01:31:11;6.97;;;2.83;;
28311;SDS011;15572;48.810;9.148;2022-10-16T01:36:14;3.93;;;2.47;;
28311;SDS011;15572;48.810;9.148;2022-10-16T01:41:15;6.70;;;2.23;;
28311;SDS011;15572;48.810;9.148;2022-10-16T01:46:17;5.70;;;1.70;;
28311;SDS011;15572;48.810;9.148;2022-10-16T01:51:16;2.00;;;1.80;;
28311;SDS011;15572;48.810;9.148;2022-10-16T01:56:15;3.10;;;1.70;;
28311;SDS011;15572;48.810;9.148;2022-10-16T02:01:16;6.17;;;1.80;;
28311;SDS011;15572;48.810;9.148;2022-10-16T02:06:17;3.47;;;1.90;;
28311;SDS011;15572;48.810;9.148;2022-10-16T02:11:14;1.97;;;1.50;;
28311;SDS011;15572;48.810;9.148;2022-10-16T02:16:11;4.20;;;1.80;;
28311;SDS011;15572;48.810;9.148;2022-10-16T02:21:12;5.17;;;1.63;;
28311;SDS011;15572;48.810;9.148;2022-10-16T02:26:13;1.80;;;1.57;;
28311;SDS011;15572;48.810;9.148;2022-10-16T02:31:16;2.70;;;1.90;;
28311;SDS011;15572;48.810;9.148;2022-10-16T02:36:19;3.17;;;1.90;;
28311;SDS011;15572;48.810;9.148;2022-10-16T02:41:16;4.57;;;1.80;;
28311;SDS011;15572;48.810;9.148;2022-10-16T02:46:12;3.73;;;1.87;;
28311;SDS011;15572;48.810;9.148;2022-10-16T02:51:09;2.47;;;1.87;;
28311;SDS011;15572;48.810;9.148;2022-10-16T02:56:07;4.33;;;2.00;;
28311;SDS011;15572;48.810;9.148;2022-10-16T03:01:04;4.57;;;1.50;;
28311;SDS011;15572;48.810;9.148;2022-10-16T03:06:00;5.47;;;1.80;;
28311;SDS011;15572;48.810;9.148;2022-10-16T03:10:57;3.40;;;1.70;;
28311;SDS011;15572;48.810;9.148;2022-10-16T03:15:55;6.03;;;1.90;;
28311;SDS011;15572;48.810;9.148;2022-10-16T03:20:52;7.00;;;1.63;;
28311;SDS011;15572;48.810;9.148;2022-10-16T03:25:48;3.67;;;1.90;;
28311;SDS011;15572;48.810;9.148;2022-10-16T03:30:45;2.90;;;1.70;;
28311;SDS011;15572;48.810;9.148;2022-10-16T03:35:43;5.50;;;1.97;;
28311;SDS011;15572;48.810;9.148;2022-10-16T03:40:47;4.00;;;1.53;;
28311;SDS011;15572;48.810;9.148;2022-10-16T03:45:44;3.80;;;1.87;;
28311;SDS011;15572;48.810;9.148;2022-10-16T03:50:40;7.40;;;2.30;;
28311;SDS011;15572;48.810;9.148;2022-10-16T03:55:40;3.70;;;2.20;;
28311;SDS011;15572;48.810;9.148;2022-10-16T04:00:39;5.53;;;1.90;;
28311;SDS011;15572;48.810;9.148;2022-10-16T04:05:36;2.50;;;1.90;;
28311;SDS011;15572;48.810;9.148;2022-10-16T04:10:33;2.93;;;1.83;;
28311;SDS011;15572;48.810;9.148;2022-10-16T04:15:31;8.97;;;1.93;;
28311;SDS011;15572;48.810;9.148;2022-10-16T04:20:27;5.00;;;1.97;;
28311;SDS011;15572;48.810;9.148;2022-10-16T04:25:25;5.90;;;2.00;;
28311;SDS011;15572;48.810;9.148;2022-10-16T04:30:21;3.40;;;2.00;;
28311;SDS011;15572;48.810;9.148;2022-10-16T04:35:20;4.47;;;2.27;;
28311;SDS011;15572;48.810;9.148;2022-10-16T04:40:17;4.67;;;2.20;;
28311;SDS011;15572;48.810;9.148;2022-10-16T04:45:14;2.30;;;2.10;;
28311;SDS011;15572;48.810;9.148;2022-10-16T04:50:10;2.53;;;2.20;;
28311;SDS011;15572;48.810;9.148;2022-10-16T04:55:08;3.57;;;2.40;;
28311;SDS011;15572;48.810;9.148;2022-10-16T05:00:05;4.10;;;2.17;;
28311;SDS011;15572;48.810;9.148;2022-10-16T05:05:03;4.40;;;2.60;;
28311;SDS011;15572;48.810;9.148;2022-10-16T05:10:00;5.03;;;2.50;;
28311;SDS011;15572;48.810;9.148;2022-10-16T05:14:58;7.17;;;2.87;;
28311;SDS011;15572;48.810;9.148;2022-10-16T05:19:54;5.73;;;2.40;;
28311;SDS011;15572;48.810;9.148;2022-10-16T05:24:51;4.93;;;2.43;;
28311;SDS011;15572;48.810;9.148;2022-10-16T05:29:48;8.07;;;2.40;;
28311;SDS011;15572;48.810;9.148;2022-10-16T05:34:46;5.73;;;2.20;;
28311;SDS011;15572;48.810;9.148;2022-10-16T05:39:43;4.53;;;1.70;;
28311;SDS011;15572;48.810;9.148;2022-10-16T05:44:39;4.20;;;1.93;;
28311;SDS011;15572;48.810;9.148;2022-10-16T05:49:36;7.17;;;2.40;;
28311;SDS011;15572;48.810;9.148;2022-10-16T05:54:34;2.30;;;2.10;;
28311;SDS011;15572;48.810;9.148;2022-10-16T05:59:30;9.27;;;2.70;;
28311;SDS011;15572;48.810;9.148;2022-10-16T06:04:27;4.97;;;2.40;;
28311;SDS011;15572;48.810;9.148;2022-10-16T06:09:23;2.50;;;2.30;;
28311;SDS011;15572;48.810;9.148;2022-10-16T06:14:21;6.87;;;2.20;;
28311;SDS011;15572;48.810;9.148;2022-10-16T06:19:18;3.80;;;1.80;;
28311;SDS011;15572;48.810;9.148;2022-10-16T06:24:14;3.23;;;2.10;;
28311;SDS011;15572;48.810;9.148;2022-10-16T06:29:11;3.00;;;2.20;;
28311;SDS011;15572;48.810;9.148;2022-10-16T06:34:09;5.60;;;2.53;;
28311;SDS011;15572;48.810;9.148;2022-10-16T06:39:06;3.87;;;2.23;;
28311;SDS011;15572;48.810;9.148;2022-10-16T06:44:04;4.63;;;2.93;;
28311;SDS011;15572;48.810;9.148;2022-10-16T06:49:01;8.30;;;2.70;;
28311;SDS011;15572;48.810;9.148;2022-10-16T06:53:59;6.67;;;2.60;;
28311;SDS011;15572;48.810;9.148;2022-10-16T06:58:56;5.87;;;3.60;;
28311;SDS011;15572;48.810;9.148;2022-10-16T07:03:52;5.47;;;4.10;;
28311;SDS011;15572;48.810;9.148;2022-10-16T07:08:49;8.80;;;3.53;;
28311;SDS011;15572;48.810;9.148;2022-10-16T07:13:48;5.60;;;3.80;;
28311;SDS011;15572;48.810;9.148;2022-10-16T07:18:46;9.87;;;3.33;;
28311;SDS011;15572;48.810;9.148;2022-10-16T07:23:44;8.10;;;3.47;;
28311;SDS011;15572;48.810;9.148;2022-10-16T07:28:40;4.20;;;2.73;;
28311;SDS011;15572;48.810;9.148;2022-10-16T07:33:40;6.70;;;3.60;;
28311;SDS011;15572;48.810;9.148;2022-10-16T07:38:39;3.87;;;2.80;;
28311;SDS011;15572;48.810;9.148;2022-10-16T07:43:37;5.57;;;3.00;;
28311;SDS011;15572;48.810;9.148;2022-10-16T07:48:33;5.70;;;3.70;;
28311;SDS011;15572;48.810;9.148;2022-10-16T07:53:32;6.47;;;3.10;;
28311;SDS011;15572;48.810;9.148;2022-10-16T07:58:29;5.67;;;2.90;;
28311;SDS011;15572;48.810;9.148;2022-10-16T08:03:26;5.53;;;2.57;;
28311;SDS011;15572;48.810;9.148;2022-10-16T08:08:24;4.30;;;2.60;;
28311;SDS011;15572;48.810;9.148;2022-10-16T08:13:23;5.30;;;2.90;;
28311;SDS011;15572;48.810;9.148;2022-10-16T08:18:19;5.60;;;3.13;;
28311;SDS011;15572;48.810;9.148;2022-10-16T08:23:16;4.93;;;2.17;;
28311;SDS011;15572;48.810;9.148;2022-10-16T08:28:12;5.37;;;2.53;;
28311;SDS011;15572;48.810;9.148;2022-10-16T08:33:10;2.35;;;2.13;;
28311;SDS011;15572;48.810;9.148;2022-10-16T08:38:07;5.82;;;2.40;;
28311;SDS011;15572;48.810;9.148;2022-10-16T08:43:20;4.38;;;2.22;;
28311;SDS011;15572;48.810;9.148;2022-10-16T08:48:26;3.30;;;2.40;;
28311;SDS011;15572;48.810;9.148;2022-10-16T08:53:27;6.30;;;1.90;;
28311;SDS011;15572;48.810;9.148;2022-10-16T08:58:27;4.80;;;2.50;;
28311;SDS011;15572;48.810;9.148;2022-10-16T09:03:43;3.80;;;2.00;;
28311;SDS011;15572;48.810;9.148;2022-10-16T09:09:02;1.73;;;1.60;;
28311;SDS011;15572;48.810;9.148;2022-10-16T09:14:14;2.17;;;1.80;;
28311;SDS011;15572;48.810;9.148;2022-10-16T09:19:23;3.88;;;1.60;;
28311;SDS011;15572;48.810;9.148;2022-10-16T09:24:25;6.00;;;1.70;;
28311;SDS011;15572;48.810;9.148;2022-10-16T09:29:23;3.13;;;1.42;;
28311;SDS011;15572;48.810;9.148;2022-10-16T09:34:24;3.45;;;1.85;;
28311;SDS011;15572;48.810;9.148;2022-10-16T09:39:30;4.05;;;1.70;;
28311;SDS011;15572;48.810;9.148;2022-10-16T09:44:39;3.40;;;1.50;;
28311;SDS011;15572;48.810;9.148;2022-10-16T09:49:38;1.65;;;1.40;;
28311;SDS011;15572;48.810;9.148;2022-10-16T09:54:34;1.70;;;1.60;;
28311;SDS011;15572;48.810;9.148;2022-10-16T09:59:31;2.45;;;1.73;;
28311;SDS011;15572;48.810;9.148;2022-10-16T10:04:36;4.22;;;1.75;;
28311;SDS011;15572;48.810;9.148;2022-10-16T10:09:37;3.05;;;1.90;;
28311;SDS011;15572;48.810;9.148;2022-10-16T10:14:36;3.53;;;1.55;;
28311;SDS011;15572;48.810;9.148;2022-10-16T10:19:37;5.53;;;1.90;;
28311;SDS011;15572;48.810;9.148;2022-10-16T10:24:36;3.20;;;1.58;;
28311;SDS011;15572;48.810;9.148;2022-10-16T10:29:41;3.03;;;1.83;;
28311;SDS011;15572;48.810;9.148;2022-10-16T10:34:54;4.32;;;1.80;;
28311;SDS011;15572;48.810;9.148;2022-10-16T10:40:02;7.05;;;2.00;;
28311;SDS011;15572;48.810;9.148;2022-10-16T10:45:16;5.00;;;2.05;;
28311;SDS011;15572;48.810;9.148;2022-10-16T10:50:20;3.20;;;2.67;;
28311;SDS011;15572;48.810;9.148;2022-10-16T10:55:23;3.83;;;2.20;;
28311;SDS011;15572;48.810;9.148;2022-10-16T11:00:26;3.60;;;1.80;;
28311;SDS011;15572;48.810;9.148;2022-10-16T11:05:33;3.90;;;1.67;;
28311;SDS011;15572;48.810;9.148;2022-10-16T11:10:38;3.38;;;1.63;;
28311;SDS011;15572;48.810;9.148;2022-10-16T11:15:40;3.22;;;1.70;;
28311;SDS011;15572;48.810;9.148;2022-10-16T11:20:44;3.28;;;1.60;;
28311;SDS011;15572;48.810;9.148;2022-10-16T11:25:45;3.05;;;1.70;;
28311;SDS011;15572;48.810;9.148;2022-10-16T11:30:44;3.30;;;1.63;;
28311;SDS011;15572;48.810;9.148;2022-10-16T11:35:48;2.63;;;1.50;;
28311;SDS011;15572;48.810;9.148;2022-10-16T11:40:49;3.67;;;1.60;;
28311;SDS011;15572;48.810;9.148;2022-10-16T11:45:52;3.83;;;1.70;;
28311;SDS011;15572;48.810;9.148;2022-10-16T11:50:53;2.05;;;1.35;;
28311;SDS011;15572;48.810;9.148;2022-10-16T11:55:52;3.10;;;1.65;;
28311;SDS011;15572;48.810;9.148;2022-10-16T12:00:51;2.00;;;1.42;;
28311;SDS011;15572;48.810;9.148;2022-10-16T12:05:58;3.72;;;1.52;;
28311;SDS011;15572;48.810;9.148;2022-10-16T12:11:06;1.80;;;1.25;;
28311;SDS011;15572;48.810;9.148;2022-10-16T12:16:19;3.25;;;1.40;;
28311;SDS011;15572;48.810;9.148;2022-10-16T12:21:19;2.40;;;1.40;;
28311;SDS011;15572;48.810;9.148;2022-10-16T12:26:27;4.07;;;1.40;;
28311;SDS011;15572;48.810;9.148;2022-10-16T12:31:25;1.90;;;1.50;;
28311;SDS011;15572;48.810;9.148;2022-10-16T12:36:36;1.95;;;1.40;;
28311;SDS011;15572;48.810;9.148;2022-10-16T12:41:33;3.35;;;1.50;;
28311;SDS011;15572;48.810;9.148;2022-10-16T12:46:35;3.33;;;1.52;;
28311;SDS011;15572;48.810;9.148;2022-10-16T12:51:36;1.88;;;1.65;;
28311;SDS011;15572;48.810;9.148;2022-10-16T12:56:36;1.70;;;1.17;;
28311;SDS011;15572;48.810;9.148;2022-10-16T13:01:48;1.45;;;1.35;;
28311;SDS011;15572;48.810;9.148;2022-10-16T13:07:00;1.88;;;1.55;;
28311;SDS011;15572;48.810;9.148;2022-10-16T13:12:15;2.60;;;1.58;;
28311;SDS011;15572;48.810;9.148;2022-10-16T13:17:22;2.25;;;1.60;;
28311;SDS011;15572;48.810;9.148;2022-10-16T13:22:29;1.75;;;1.55;;
28311;SDS011;15572;48.810;9.148;2022-10-16T13:27:33;2.92;;;1.55;;
28311;SDS011;15572;48.810;9.148;2022-10-16T13:32:36;6.60;;;1.63;;
28311;SDS011;15572;48.810;9.148;2022-10-16T13:37:34;2.83;;;1.90;;
28311;SDS011;15572;48.810;9.148;2022-10-16T13:42:31;4.07;;;2.03;;
28311;SDS011;15572;48.810;9.148;2022-10-16T13:47:29;2.40;;;1.60;;
28311;SDS011;15572;48.810;9.148;2022-10-16T13:52:25;4.03;;;1.60;;
28311;SDS011;15572;48.810;9.148;2022-10-16T13:57:24;3.78;;;1.45;;
28311;SDS011;15572;48.810;9.148;2022-10-16T14:02:22;2.70;;;1.60;;
28311;SDS011;15572;48.810;9.148;2022-10-16T14:07:23;4.45;;;1.58;;
28311;SDS011;15572;48.810;9.148;2022-10-16T14:12:22;2.55;;;1.40;;
28311;SDS011;15572;48.810;9.148;2022-10-16T14:17:21;2.45;;;1.50;;
28311;SDS011;15572;48.810;9.148;2022-10-16T14:22:23;3.15;;;1.50;;
28311;SDS011;15572;48.810;9.148;2022-10-16T14:27:27;4.35;;;1.90;;
28311;SDS011;15572;48.810;9.148;2022-10-16T14:32:27;1.73;;;1.63;;
28311;SDS011;15572;48.810;9.148;2022-10-16T14:37:26;3.75;;;1.92;;
28311;SDS011;15572;48.810;9.148;2022-10-16T14:42:24;2.55;;;2.03;;
28311;SDS011;15572;48.810;9.148;2022-10-16T14:47:23;3.75;;;2.30;;
28311;SDS011;15572;48.810;9.148;2022-10-16T14:52:22;5.05;;;2.70;;
28311;SDS011;15572;48.810;9.148;2022-10-16T14:57:19;5.13;;;2.78;;
28311;SDS011;15572;48.810;9.148;2022-10-16T15:02:20;4.03;;;2.20;;
28311;SDS011;15572;48.810;9.148;2022-10-16T15:07:23;4.55;;;2.30;;
28311;SDS011;15572;48.810;9.148;2022-10-16T15:12:20;4.32;;;2.60;;
28311;SDS011;15572;48.810;9.148;2022-10-16T15:17:16;5.18;;;3.40;;
28311;SDS011;15572;48.810;9.148;2022-10-16T15:22:14;7.85;;;2.90;;
28311;SDS011;15572;48.810;9.148;2022-10-16T15:27:11;6.28;;;2.72;;
28311;SDS011;15572;48.810;9.148;2022-10-16T15:32:08;4.22;;;2.33;;
28311;SDS011;15572;48.810;9.148;2022-10-16T15:37:05;5.15;;;2.22;;
28311;SDS011;15572;48.810;9.148;2022-10-16T15:42:03;4.13;;;2.03;;
28311;SDS011;15572;48.810;9.148;2022-10-16T15:47:01;4.53;;;2.25;;
28311;SDS011;15572;48.810;9.148;2022-10-16T15:51:57;6.78;;;2.45;;
28311;SDS011;15572;48.810;9.148;2022-10-16T15:56:53;4.78;;;2.92;;
28311;SDS011;15572;48.810;9.148;2022-10-16T16:01:51;5.82;;;3.40;;
28311;SDS011;15572;48.810;9.148;2022-10-16T16:06:48;5.85;;;3.78;;
28311;SDS011;15572;48.810;9.148;2022-10-16T16:11:44;4.57;;;3.20;;
28311;SDS011;15572;48.810;9.148;2022-10-16T16:16:41;6.20;;;3.40;;
28311;SDS011;15572;48.810;9.148;2022-10-16T16:21:39;5.38;;;3.97;;
28311;SDS011;15572;48.810;9.148;2022-10-16T16:26:35;7.57;;;4.43;;
28311;SDS011;15572;48.810;9.148;2022-10-16T16:31:34;9.10;;;5.57;;
28311;SDS011;15572;48.810;9.148;2022-10-16T16:36:31;9.13;;;6.03;;
28311;SDS011;15572;48.810;9.148;2022-10-16T16:41:29;13.25;;;6.70;;
28311;SDS011;15572;48.810;9.148;2022-10-16T16:46:26;12.90;;;8.15;;
28311;SDS011;15572;48.810;9.148;2022-10-16T16:51:22;12.88;;;4.65;;
28311;SDS011;15572;48.810;9.148;2022-10-16T16:56:19;5.57;;;3.00;;
28311;SDS011;15572;48.810;9.148;2022-10-16T17:01:18;6.00;;;3.47;;
28311;SDS011;15572;48.810;9.148;2022-10-16T17:06:15;7.70;;;3.50;;
28311;SDS011;15572;48.810;9.148;2022-10-16T17:11:12;8.35;;;3.55;;
28311;SDS011;15572;48.810;9.148;2022-10-16T17:16:11;8.27;;;3.60;;
28311;SDS011;15572;48.810;9.148;2022-10-16T17:21:09;8.30;;;3.53;;
28311;SDS011;15572;48.810;9.148;2022-10-16T17:26:06;6.95;;;4.07;;
28311;SDS011;15572;48.810;9.148;2022-10-16T17:31:06;9.45;;;3.63;;
28311;SDS011;15572;48.810;9.148;2022-10-16T17:36:04;5.68;;;3.72;;
28311;SDS011;15572;48.810;9.148;2022-10-16T17:41:10;8.48;;;3.90;;
28311;SDS011;15572;48.810;9.148;2022-10-16T17:46:08;7.00;;;4.47;;
28311;SDS011;15572;48.810;9.148;2022-10-16T17:51:06;8.68;;;4.35;;
28311;SDS011;15572;48.810;9.148;2022-10-16T17:56:04;10.77;;;4.50;;
28311;SDS011;15572;48.810;9.148;2022-10-16T18:01:03;13.85;;;5.93;;
28311;SDS011;15572;48.810;9.148;2022-10-16T18:06:07;17.52;;;4.82;;
28311;SDS011;15572;48.810;9.148;2022-10-16T18:11:04;8.80;;;4.53;;
28311;SDS011;15572;48.810;9.148;2022-10-16T18:16:03;12.53;;;4.53;;
28311;SDS011;15572;48.810;9.148;2022-10-16T18:21:04;8.13;;;3.97;;
28311;SDS011;15572;48.810;9.148;2022-10-16T18:26:04;8.83;;;4.40;;
28311;SDS011;15572;48.810;9.148;2022-10-16T18:31:04;9.57;;;4.30;;
28311;SDS011;15572;48.810;9.148;2022-10-16T18:36:03;10.37;;;6.10;;
28311;SDS011;15572;48.810;9.148;2022-10-16T18:41:01;9.27;;;5.77;;
28311;SDS011;15572;48.810;9.148;2022-10-16T18:46:00;8.73;;;5.70;;
28311;SDS011;15572;48.810;9.148;2022-10-16T18:51:06;9.50;;;5.90;;
28311;SDS011;15572;48.810;9.148;2022-10-16T18:56:04;11.53;;;5.37;;
28311;SDS011;15572;48.810;9.148;2022-10-16T19:01:02;10.40;;;5.70;;
28311;SDS011;15572;48.810;9.148;2022-10-16T19:06:00;11.30;;;5.40;;
28311;SDS011;15572;48.810;9.148;2022-10-16T19:11:02;8.90;;;5.67;;
28311;SDS011;15572;48.810;9.148;2022-10-16T19:15:59;17.53;;;6.10;;
28311;SDS011;15572;48.810;9.148;2022-10-16T19:20:59;10.37;;;6.50;;
28311;SDS011;15572;48.810;9.148;2022-10-16T19:25:59;11.87;;;6.80;;
28311;SDS011;15572;48.810;9.148;2022-10-16T19:30:59;9.87;;;5.73;;
28311;SDS011;15572;48.810;9.148;2022-10-16T19:36:05;7.07;;;5.80;;
28311;SDS011;15572;48.810;9.148;2022-10-16T19:41:07;7.23;;;4.60;;
28311;SDS011;15572;48.810;9.148;2022-10-16T19:46:05;9.10;;;4.47;;
28311;SDS011;15572;48.810;9.148;2022-10-16T19:51:03;8.30;;;4.27;;
28311;SDS011;15572;48.810;9.148;2022-10-16T19:56:00;8.33;;;4.10;;
28311;SDS011;15572;48.810;9.148;2022-10-16T20:00:58;9.37;;;5.03;;
28311;SDS011;15572;48.810;9.148;2022-10-16T20:05:54;4.73;;;4.20;;
28311;SDS011;15572;48.810;9.148;2022-10-16T20:10:53;7.63;;;4.50;;
28311;SDS011;15572;48.810;9.148;2022-10-16T20:15:50;6.20;;;4.30;;
28311;SDS011;15572;48.810;9.148;2022-10-16T20:20:48;6.63;;;4.60;;
28311;SDS011;15572;48.810;9.148;2022-10-16T20:25:46;5.30;;;3.63;;
28311;SDS011;15572;48.810;9.148;2022-10-16T20:30:43;4.27;;;3.40;;
28311;SDS011;15572;48.810;9.148;2022-10-16T20:35:41;6.83;;;3.50;;
28311;SDS011;15572;48.810;9.148;2022-10-16T20:40:54;5.20;;;3.27;;
28311;SDS011;15572;48.810;9.148;2022-10-16T20:46:05;6.10;;;3.20;;
28311;SDS011;15572;48.810;9.148;2022-10-16T20:51:10;4.73;;;3.30;;
28311;SDS011;15572;48.810;9.148;2022-10-16T20:56:09;6.97;;;3.20;;
28311;SDS011;15572;48.810;9.148;2022-10-16T21:01:11;4.40;;;3.23;;
28311;SDS011;15572;48.810;9.148;2022-10-16T21:06:08;3.50;;;2.87;;
28311;SDS011;15572;48.810;9.148;2022-10-16T21:11:11;12.27;;;6.73;;
28311;SDS011;15572;48.810;9.148;2022-10-16T21:16:09;6.97;;;3.40;;
28311;SDS011;15572;48.810;9.148;2022-10-16T21:21:07;7.70;;;3.73;;
28311;SDS011;15572;48.810;9.148;2022-10-16T21:26:04;6.60;;;3.80;;
28311;SDS011;15572;48.810;9.148;2022-10-16T21:31:10;7.87;;;3.70;;
28311;SDS011;15572;48.810;9.148;2022-10-16T21:36:11;7.67;;;3.43;;
28311;SDS011;15572;48.810;9.148;2022-10-16T21:41:15;6.43;;;3.70;;
28311;SDS011;15572;48.810;9.148;2022-10-16T21:46:15;10.03;;;3.07;;
28311;SDS011;15572;48.810;9.148;2022-10-16T21:51:15;8.83;;;3.73;;
28311;SDS011;15572;48.810;9.148;2022-10-16T21:56:11;6.83;;;3.77;;
28311;SDS011;15572;48.810;9.148;2022-10-16T22:01:10;7.80;;;5.10;;
28311;SDS011;15572;48.810;9.148;2022-10-16T22:06:10;8.53;;;4.93;;
28311;SDS011;15572;48.810;9.148;2022-10-16T22:11:08;13.10;;;4.90;;
28311;SDS011;15572;48.810;9.148;2022-10-16T22:16:07;8.23;;;4.03;;
28311;SDS011;15572;48.810;9.148;2022-10-16T22:21:04;16.00;;;5.57;;
28311;SDS011;15572;48.810;9.148;2022-10-16T22:26:03;9.00;;;5.50;;
28311;SDS011;15572;48.810;9.148;2022-10-16T22:31:01;7.93;;;5.73;;
28311;SDS011;15572;48.810;9.148;2022-10-16T22:36:00;8.70;;;4.80;;
28311;SDS011;15572;48.810;9.148;2022-10-16T22:40:59;11.33;;;5.07;;
28311;SDS011;15572;48.810;9.148;2022-10-16T22:46:01;9.70;;;4.97;;
28311;SDS011;15572;48.810;9.148;2022-10-16T22:50:59;10.30;;;4.90;;
28311;SDS011;15572;48.810;9.148;2022-10-16T22:55:56;10.47;;;5.50;;
28311;SDS011;15572;48.810;9.148;2022-10-16T23:00:52;10.23;;;5.20;;
28311;SDS011;15572;48.810;9.148;2022-10-16T23:05:51;10.40;;;4.87;;
28311;SDS011;15572;48.810;9.148;2022-10-16T23:10:47;8.13;;;4.60;;
28311;SDS011;15572;48.810;9.148;2022-10-16T23:15:44;4.80;;;3.40;;
28311;SDS011;15572;48.810;9.148;2022-10-16T23:20:41;8.23;;;4.57;;
28311;SDS011;15572;48.810;9.148;2022-10-16T23:25:43;6.97;;;4.73;;
28311;SDS011;15572;48.810;9.148;2022-10-16T23:30:40;6.90;;;4.37;;
28311;SDS011;15572;48.810;9.148;2022-10-16T23:35:38;6.00;;;4.10;;
28311;SDS011;15572;48.810;9.148;2022-10-16T23:40:35;5.83;;;4.30;;
28311;SDS011;15572;48.810;9.148;2022-10-16T23:45:33;7.33;;;4.30;;
28311;SDS011;15572;48.810;9.148;2022-10-16T23:50:30;6.90;;;4.40;;
28311;SDS011;15572;48.810;9.148;2022-10-16T23:55:26;7.63;;;3.67;;
